createdAt,value
2019-02-11T00:00:05.665Z,94863.83
2019-02-11T00:02:33.099Z,94869.34
2019-02-11T00:05:00.508Z,94872.13
2019-02-11T00:07:27.938Z,94877.25
2019-02-11T00:09:55.305Z,94884.05
2019-02-11T00:12:22.730Z,94869.83
2019-02-11T00:14:50.184Z,94872.47
2019-02-11T00:17:17.548Z,94856.23
2019-02-11T00:19:44.967Z,94864.52
2019-02-11T00:22:12.412Z,94856.70
2019-02-11T00:24:39.843Z,94844.06
2019-02-11T00:27:07.220Z,94862.64
2019-02-11T00:29:34.632Z,94867.15
2019-02-11T00:32:02.190Z,94870.87
2019-02-11T00:34:29.589Z,94875.94
2019-02-11T00:36:57.011Z,94878.55
2019-02-11T00:39:24.412Z,94882.52
2019-02-11T00:41:51.807Z,94870.73
2019-02-11T00:44:19.232Z,94874.22
2019-02-11T00:46:46.770Z,94880.93
2019-02-11T00:49:14.135Z,94876.02
2019-02-11T00:51:41.762Z,94853.06
2019-02-11T00:54:09.252Z,94880.96
2019-02-11T00:56:36.700Z,94871.29
2019-02-11T00:59:04.142Z,94863.52
2019-02-11T01:01:31.499Z,94860.03
2019-02-11T01:03:58.969Z,94848.47
2019-02-11T01:06:26.400Z,94847.26
2019-02-11T01:08:53.741Z,94841.13
2019-02-11T01:11:21.176Z,94837.97
2019-02-11T01:13:48.568Z,94830.31
2019-02-11T01:16:16.006Z,94837.51
2019-02-11T01:18:43.730Z,94847.02
2019-02-11T01:21:11.124Z,94824.64
2019-02-11T01:23:38.546Z,94801.86
2019-02-11T01:26:06.020Z,94815.58
2019-02-11T01:28:33.487Z,94800.81
2019-02-11T01:31:00.915Z,94816.14
2019-02-11T01:33:28.350Z,94799.23
2019-02-11T01:35:55.778Z,94799.53
2019-02-11T01:38:23.606Z,94797.34
2019-02-11T01:40:51.048Z,94788.69
2019-02-11T01:43:18.495Z,94796.69
2019-02-11T01:45:45.960Z,94795.89
2019-02-11T01:48:13.448Z,94795.52
2019-02-11T01:50:40.903Z,94788.44
2019-02-11T01:53:09.008Z,94804.43
2019-02-11T01:55:36.648Z,94793.73
2019-02-11T01:58:04.420Z,94783.22
2019-02-11T02:00:32.243Z,94771.31
2019-02-11T02:02:59.759Z,94754.56
2019-02-11T02:05:29.699Z,94755.58
2019-02-11T02:07:57.144Z,94765.63
2019-02-11T02:10:24.613Z,94746.51
2019-02-11T02:12:52.014Z,94746.73
2019-02-11T02:15:19.388Z,94735.80
2019-02-11T02:17:47.079Z,94735.38
2019-02-11T02:20:14.546Z,94738.19
2019-02-11T02:22:42.083Z,94742.45
2019-02-11T02:25:09.665Z,94731.98
2019-02-11T02:27:37.096Z,94738.70
2019-02-11T02:30:05.465Z,94746.86
2019-02-11T02:32:32.894Z,94748.36
2019-02-11T02:35:00.568Z,94750.21
2019-02-11T02:37:27.984Z,94752.08
2019-02-11T02:39:55.432Z,94724.94
2019-02-11T02:42:23.598Z,94741.41
2019-02-11T02:44:51.278Z,94726.39
2019-02-11T02:47:18.911Z,94729.47
2019-02-11T02:49:46.589Z,94724.26
2019-02-11T02:52:13.976Z,94724.69
2019-02-11T02:54:41.840Z,94717.20
2019-02-11T02:57:09.355Z,94699.79
2019-02-11T02:59:36.819Z,94700.02
2019-02-11T03:02:04.988Z,94697.64
2019-02-11T03:04:32.456Z,94696.55
2019-02-11T03:06:59.904Z,94684.76
2019-02-11T03:09:27.290Z,94701.95
2019-02-11T03:11:54.809Z,94684.38
2019-02-11T03:14:22.294Z,94684.66
2019-02-11T03:16:49.669Z,94700.84
2019-02-11T03:19:17.113Z,94692.37
2019-02-11T03:21:44.687Z,94702.06
2019-02-11T03:24:12.330Z,94702.36
2019-02-11T03:26:39.804Z,94685.40
2019-02-11T03:29:07.221Z,94690.38
2019-02-11T03:31:34.778Z,94688.53
2019-02-11T03:34:02.213Z,94683.97
2019-02-11T03:36:29.636Z,94681.92
2019-02-11T03:38:57.026Z,94682.14
2019-02-11T03:41:24.503Z,94688.31
2019-02-11T03:43:52.039Z,94695.86
2019-02-11T03:46:19.478Z,94696.17
2019-02-11T03:48:46.960Z,94691.91
2019-02-11T03:51:14.666Z,94684.27
2019-02-11T03:53:42.256Z,94682.61
2019-02-11T03:56:09.799Z,94688.44
2019-02-11T03:58:37.351Z,94679.36
2019-02-11T04:01:04.741Z,94683.73
2019-02-11T04:03:32.154Z,94673.74
2019-02-11T04:05:59.590Z,94676.67
2019-02-11T04:08:27.244Z,94672.41
2019-02-11T04:10:54.913Z,94676.90
2019-02-11T04:13:22.283Z,94683.45
2019-02-11T04:15:49.743Z,94680.30
2019-02-11T04:18:17.212Z,94678.19
2019-02-11T04:20:44.640Z,94681.89
2019-02-11T04:23:12.068Z,94659.70
2019-02-11T04:25:39.536Z,94642.53
2019-02-11T04:28:06.915Z,94643.55
2019-02-11T04:30:34.336Z,94652.48
2019-02-11T04:33:01.751Z,94651.97
2019-02-11T04:35:29.246Z,94661.11
2019-02-11T04:37:56.715Z,94659.84
2019-02-11T04:40:24.180Z,94657.97
2019-02-11T04:42:51.635Z,94652.08
2019-02-11T04:45:19.089Z,94639.73
2019-02-11T04:47:46.500Z,94633.38
2019-02-11T04:50:13.941Z,94631.47
2019-02-11T04:52:41.397Z,94630.57
2019-02-11T04:55:08.883Z,94633.09
2019-02-11T04:57:36.451Z,94626.10
2019-02-11T05:00:05.390Z,94622.80
2019-02-11T05:02:32.799Z,94634.13
2019-02-11T05:05:00.239Z,94634.38
2019-02-11T05:07:27.682Z,94634.52
2019-02-11T05:09:55.043Z,94635.25
2019-02-11T05:12:22.483Z,94658.03
2019-02-11T05:14:50.052Z,94658.33
2019-02-11T05:17:17.509Z,94655.41
2019-02-11T05:19:44.923Z,94641.97
2019-02-11T05:22:12.343Z,94619.30
2019-02-11T05:24:39.788Z,94618.21
2019-02-11T05:27:07.219Z,94639.25
2019-02-11T05:29:34.617Z,94623.45
2019-02-11T05:32:02.036Z,94633.77
2019-02-11T05:34:29.489Z,94633.38
2019-02-11T05:36:56.920Z,94645.27
2019-02-11T05:39:24.367Z,94648.81
2019-02-11T05:41:51.857Z,94644.78
2019-02-11T05:44:19.249Z,94638.41
2019-02-11T05:46:46.738Z,94642.74
2019-02-11T05:49:14.213Z,94651.68
2019-02-11T05:51:41.627Z,94649.25
2019-02-11T05:54:09.052Z,94646.67
2019-02-11T05:56:36.489Z,94628.43
2019-02-11T05:59:04.227Z,94650.72
2019-02-11T06:01:31.717Z,94649.33
2019-02-11T06:03:59.123Z,94655.38
2019-02-11T06:06:26.563Z,94659.38
2019-02-11T06:08:54.024Z,94673.34
2019-02-11T06:11:21.374Z,94676.62
2019-02-11T06:13:48.862Z,94677.31
2019-02-11T06:16:16.309Z,94662.36
2019-02-11T06:18:43.804Z,94664.52
2019-02-11T06:21:11.236Z,94658.77
2019-02-11T06:23:38.696Z,94678.27
2019-02-11T06:26:06.126Z,94676.94
2019-02-11T06:28:33.509Z,94669.88
2019-02-11T06:31:00.978Z,94675.74
2019-02-11T06:33:28.400Z,94688.16
2019-02-11T06:35:55.828Z,94702.72
2019-02-11T06:38:23.248Z,94694.73
2019-02-11T06:40:50.742Z,94682.10
2019-02-11T06:43:18.172Z,94688.84
2019-02-11T06:45:45.600Z,94679.73
2019-02-11T06:48:13.050Z,94682.30
2019-02-11T06:50:40.481Z,94680.61
2019-02-11T06:53:08.018Z,94692.66
2019-02-11T06:55:35.476Z,94685.03
2019-02-11T06:58:02.893Z,94678.85
2019-02-11T07:00:30.496Z,94680.25
2019-02-11T07:02:57.974Z,94675.70
2019-02-11T07:05:25.370Z,94657.20
2019-02-11T07:07:52.817Z,94673.76
2019-02-11T07:10:20.249Z,94667.73
2019-02-11T07:12:47.629Z,94669.25
2019-02-11T07:15:21.916Z,94674.62
2019-02-11T07:17:44.467Z,94671.61
2019-02-11T07:20:11.884Z,94669.77
2019-02-11T07:22:39.314Z,94656.93
2019-02-11T07:25:07.413Z,94662.39
2019-02-11T07:27:34.863Z,94669.32
2019-02-11T07:30:02.433Z,94668.85
2019-02-11T07:32:29.887Z,94669.12
2019-02-11T07:34:57.245Z,94656.47
2019-02-11T07:37:24.677Z,94641.15
2019-02-11T07:39:52.073Z,94646.05
2019-02-11T07:42:25.564Z,94633.30
2019-02-11T07:44:58.266Z,94629.17
2019-02-11T07:47:25.708Z,94628.02
2019-02-11T07:49:53.153Z,94613.42
2019-02-11T07:52:26.642Z,94611.89
2019-02-11T07:54:49.948Z,94606.16
2019-02-11T07:57:17.326Z,94605.84
2019-02-11T07:59:44.790Z,94597.92
2019-02-11T08:02:12.299Z,94598.19
2019-02-11T08:04:39.731Z,94605.02
2019-02-11T08:07:07.217Z,94608.54
2019-02-11T08:09:34.697Z,94589.33
2019-02-11T08:12:02.152Z,94597.34
2019-02-11T08:14:29.909Z,94580.65
2019-02-11T08:16:57.275Z,94576.70
2019-02-11T08:19:26.527Z,94563.77
2019-02-11T08:21:53.981Z,94564.61
2019-02-11T08:24:21.382Z,94554.88
2019-02-11T08:26:48.809Z,94561.30
2019-02-11T08:29:16.204Z,94556.70
2019-02-11T08:31:43.657Z,94555.89
2019-02-11T08:34:11.084Z,94544.23
2019-02-11T08:36:38.444Z,94542.41
2019-02-11T08:39:06.674Z,94526.37
2019-02-11T08:41:34.199Z,94527.71
2019-02-11T08:44:01.861Z,94529.50
2019-02-11T08:46:29.284Z,94527.86
2019-02-11T08:48:56.723Z,94534.59
2019-02-11T08:51:26.088Z,94536.86
2019-02-11T08:53:53.633Z,94534.64
2019-02-11T08:56:21.060Z,94530.48
2019-02-11T08:58:48.433Z,94523.17
2019-02-11T09:01:15.870Z,94520.61
2019-02-11T09:03:43.546Z,94509.71
2019-02-11T09:06:11.056Z,94515.27
2019-02-11T09:08:38.514Z,94504.23
2019-02-11T09:11:06.007Z,94494.67
2019-02-11T09:13:33.375Z,94500.31
2019-02-11T09:16:00.949Z,94480.27
2019-02-11T09:18:28.388Z,94476.17
2019-02-11T09:20:55.809Z,94459.73
2019-02-11T09:23:23.334Z,94462.98
2019-02-11T09:25:50.805Z,94483.37
2019-02-11T09:28:18.380Z,94484.84
2019-02-11T09:30:45.748Z,94420.80
2019-02-11T09:33:13.183Z,94429.25
2019-02-11T09:35:41.316Z,94469.95
2019-02-11T09:38:08.682Z,94463.62
2019-02-11T09:40:36.169Z,94450.59
2019-02-11T09:43:03.772Z,94465.41
2019-02-11T09:45:31.238Z,94461.53
2019-02-11T09:47:58.776Z,94450.91
2019-02-11T09:50:38.745Z,94461.39
2019-02-11T09:53:06.611Z,94456.17
2019-02-11T09:55:34.268Z,94442.20
2019-02-11T09:58:01.714Z,94437.68
2019-02-11T10:00:29.599Z,94431.53
2019-02-11T10:02:57.133Z,94431.36
2019-02-11T10:05:24.674Z,94441.84
2019-02-11T10:07:52.282Z,94436.45
2019-02-11T10:10:19.735Z,94417.16
2019-02-11T10:12:47.303Z,94411.31
2019-02-11T10:15:15.210Z,94399.93
2019-02-11T10:17:42.831Z,94401.89
2019-02-11T10:20:10.470Z,94392.38
2019-02-11T10:22:38.031Z,94391.18
2019-02-11T10:25:08.638Z,94380.09
2019-02-11T10:27:36.139Z,94372.62
2019-02-11T10:30:04.526Z,94378.29
2019-02-11T10:32:31.958Z,94373.36
2019-02-11T10:34:59.453Z,94351.94
2019-02-11T10:37:26.946Z,94351.37
2019-02-11T10:39:54.442Z,94356.59
2019-02-11T10:42:21.886Z,94327.54
2019-02-11T10:44:49.321Z,94335.47
2019-02-11T10:47:16.878Z,94349.09
2019-02-11T10:49:44.554Z,94337.13
2019-02-11T10:52:12.363Z,94319.47
2019-02-11T10:54:39.867Z,94345.34
2019-02-11T10:57:07.343Z,94334.33
2019-02-11T10:59:34.848Z,94316.15
2019-02-11T11:02:02.392Z,94297.17
2019-02-11T11:04:29.848Z,94303.56
2019-02-11T11:06:57.365Z,94290.55
2019-02-11T11:09:24.853Z,94284.31
2019-02-11T11:11:52.262Z,94280.78
2019-02-11T11:14:19.720Z,94276.04
2019-02-11T11:16:47.154Z,94268.34
2019-02-11T11:19:14.569Z,94262.63
2019-02-11T11:21:42.285Z,94228.84
2019-02-11T11:24:09.753Z,94230.42
2019-02-11T11:26:37.265Z,94239.89
2019-02-11T11:29:05.985Z,94270.47
2019-02-11T11:31:33.644Z,94243.64
2019-02-11T11:34:01.114Z,94225.06
2019-02-11T11:36:28.609Z,94240.92
2019-02-11T11:38:56.072Z,94248.10
2019-02-11T11:41:24.429Z,94224.13
2019-02-11T11:43:51.884Z,94226.38
2019-02-11T11:46:19.418Z,94230.22
2019-02-11T11:48:46.891Z,94227.88
2019-02-11T11:51:14.669Z,94228.45
2019-02-11T11:53:42.096Z,94215.34
2019-02-11T11:56:09.524Z,94228.72
2019-02-11T11:58:37.222Z,94226.79
2019-02-11T12:01:05.079Z,94221.94
2019-02-11T12:03:32.457Z,94211.87
2019-02-11T12:05:59.893Z,94210.35
2019-02-11T12:08:27.314Z,94198.73
2019-02-11T12:10:54.701Z,94199.78
2019-02-11T12:13:23.726Z,94198.20
2019-02-11T12:15:51.506Z,94188.39
2019-02-11T12:18:18.977Z,94207.08
2019-02-11T12:20:46.453Z,94210.55
2019-02-11T12:23:13.971Z,94212.32
2019-02-11T12:25:41.349Z,94201.20
2019-02-11T12:28:08.864Z,94207.82
2019-02-11T12:30:36.320Z,94203.77
2019-02-11T12:33:03.927Z,94189.84
2019-02-11T12:35:31.445Z,94167.91
2019-02-11T12:37:58.976Z,94158.28
2019-02-11T12:40:26.583Z,94158.93
2019-02-11T12:42:54.512Z,94148.14
2019-02-11T12:45:22.636Z,94143.09
2019-02-11T12:47:50.224Z,94153.56
2019-02-11T12:50:18.305Z,94172.38
2019-02-11T12:52:46.027Z,94164.31
2019-02-11T12:55:13.971Z,94177.28
2019-02-11T12:57:41.612Z,94174.19
2019-02-11T13:00:17.013Z,94162.29
2019-02-11T13:02:44.213Z,94170.32
2019-02-11T13:05:12.203Z,94151.31
2019-02-11T13:07:39.820Z,94144.92
2019-02-11T13:10:10.176Z,94167.61
2019-02-11T13:12:37.735Z,94164.53
2019-02-11T13:15:06.011Z,94160.23
2019-02-11T13:17:34.963Z,94152.70
2019-02-11T13:20:08.953Z,94126.98
2019-02-11T13:22:32.513Z,94140.30
2019-02-11T13:24:59.989Z,94135.02
2019-02-11T13:27:27.491Z,94136.81
2019-02-11T13:29:55.079Z,94131.14
2019-02-11T13:32:22.492Z,94125.78
2019-02-11T13:34:49.928Z,94122.09
2019-02-11T13:37:17.395Z,94121.38
2019-02-11T13:39:44.775Z,94102.76
2019-02-11T13:42:12.365Z,94103.41
2019-02-11T13:44:39.944Z,94098.25
2019-02-11T13:47:07.639Z,94107.33
2019-02-11T13:49:35.099Z,94104.58
2019-02-11T13:52:02.726Z,94085.59
2019-02-11T13:54:30.279Z,94091.97
2019-02-11T13:56:57.758Z,94081.70
2019-02-11T13:59:25.201Z,94085.62
2019-02-11T14:01:52.815Z,94087.12
2019-02-11T14:04:20.329Z,94083.69
2019-02-11T14:06:47.949Z,94054.72
2019-02-11T14:09:15.526Z,94063.34
2019-02-11T14:11:42.913Z,94056.83
2019-02-11T14:14:10.403Z,94063.59
2019-02-11T14:16:38.031Z,94046.95
2019-02-11T14:19:05.503Z,94062.11
2019-02-11T14:21:33.026Z,94065.08
2019-02-11T14:24:00.492Z,94062.52
2019-02-11T14:26:27.940Z,94055.75
2019-02-11T14:28:55.417Z,94046.80
2019-02-11T14:31:22.860Z,94027.99
2019-02-11T14:33:50.266Z,94027.39
2019-02-11T14:36:17.728Z,94032.33
2019-02-11T14:38:45.212Z,94030.84
2019-02-11T14:41:12.746Z,94012.73
2019-02-11T14:43:40.267Z,94019.63
2019-02-11T14:46:07.819Z,94021.92
2019-02-11T14:48:35.274Z,94013.81
2019-02-11T14:51:02.724Z,94021.11
2019-02-11T14:53:30.304Z,94015.83
2019-02-11T14:55:57.747Z,93997.52
2019-02-11T14:58:25.132Z,94032.42
2019-02-11T15:00:52.608Z,94031.13
2019-02-11T15:03:20.041Z,94047.49
2019-02-11T15:05:47.468Z,94023.30
2019-02-11T15:08:14.865Z,94059.39
2019-02-11T15:10:42.273Z,94034.19
2019-02-11T15:13:09.733Z,94023.95
2019-02-11T15:15:37.879Z,94023.30
2019-02-11T15:18:05.432Z,94031.59
2019-02-11T15:20:32.858Z,94035.09
2019-02-11T15:23:00.343Z,94024.45
2019-02-11T15:25:27.818Z,94024.02
2019-02-11T15:27:55.249Z,94028.58
2019-02-11T15:30:22.727Z,94019.05
2019-02-11T15:32:50.209Z,94016.98
2019-02-11T15:35:17.871Z,94017.13
2019-02-11T15:37:45.278Z,94014.42
2019-02-11T15:40:14.754Z,94006.52
2019-02-11T15:42:42.195Z,93993.72
2019-02-11T15:45:11.023Z,93984.56
2019-02-11T15:47:38.389Z,93989.68
2019-02-11T15:50:07.169Z,93986.24
2019-02-11T15:52:35.063Z,93983.83
2019-02-11T15:55:03.981Z,93983.38
2019-02-11T15:57:31.427Z,93970.73
2019-02-11T15:59:58.841Z,93976.33
2019-02-11T16:02:26.212Z,93993.97
2019-02-11T16:05:01.838Z,93986.03
2019-02-11T16:07:23.041Z,93982.72
2019-02-11T16:09:50.508Z,93984.70
2019-02-11T16:12:18.167Z,93992.95
2019-02-11T16:14:45.613Z,93989.03
2019-02-11T16:17:13.004Z,93988.53
2019-02-11T16:19:40.485Z,93989.89
2019-02-11T16:22:08.042Z,93985.86
2019-02-11T16:24:35.424Z,93984.08
2019-02-11T16:27:02.866Z,93984.73
2019-02-11T16:29:30.298Z,93980.34
2019-02-11T16:32:00.759Z,93980.67
2019-02-11T16:34:26.977Z,93962.14
2019-02-11T16:36:54.414Z,93975.00
2019-02-11T16:39:21.768Z,93975.31
2019-02-11T16:41:49.235Z,93984.52
2019-02-11T16:44:16.684Z,93990.59
2019-02-11T16:46:44.105Z,93985.47
2019-02-11T16:49:11.559Z,93970.88
2019-02-11T16:51:39.396Z,93977.28
2019-02-11T16:54:06.792Z,93984.31
2019-02-11T16:56:34.362Z,93983.22
2019-02-11T16:59:01.735Z,93962.55
2019-02-11T17:01:29.268Z,93968.76
2019-02-11T17:03:56.690Z,93966.18
2019-02-11T17:06:24.123Z,93968.84
2019-02-11T17:08:51.586Z,93985.18
2019-02-11T17:11:19.043Z,93980.66
2019-02-11T17:13:46.476Z,93982.46
2019-02-11T17:16:13.999Z,93981.34
2019-02-11T17:18:41.434Z,93982.12
2019-02-11T17:21:08.890Z,93983.06
2019-02-11T17:23:36.430Z,93975.21
2019-02-11T17:26:03.900Z,93966.13
2019-02-11T17:28:31.350Z,93976.03
2019-02-11T17:30:59.052Z,93935.69
2019-02-11T17:33:26.504Z,93973.72
2019-02-11T17:35:53.955Z,93977.92
2019-02-11T17:38:21.750Z,93978.20
2019-02-11T17:40:49.282Z,93985.45
2019-02-11T17:43:16.826Z,93980.52
2019-02-11T17:45:44.339Z,93986.27
2019-02-11T17:48:11.808Z,93971.66
2019-02-11T17:50:39.441Z,93973.03
2019-02-11T17:53:08.298Z,93973.69
2019-02-11T17:55:35.744Z,93973.80
2019-02-11T17:58:03.731Z,93968.55
2019-02-11T18:00:36.296Z,93958.97
2019-02-11T18:03:03.937Z,93964.63
2019-02-11T18:05:31.354Z,93947.92
2019-02-11T18:07:58.895Z,93936.77
2019-02-11T18:10:26.366Z,93940.66
2019-02-11T18:12:53.895Z,93940.23
2019-02-11T18:15:21.348Z,93945.44
2019-02-11T18:17:49.048Z,93923.94
2019-02-11T18:20:16.900Z,93925.98
2019-02-11T18:22:44.445Z,93929.05
2019-02-11T18:25:11.856Z,93936.30
2019-02-11T18:27:39.369Z,93924.22
2019-02-11T18:30:07.971Z,93900.84
2019-02-11T18:32:35.417Z,93911.72
2019-02-11T18:35:03.482Z,93905.09
2019-02-11T18:37:30.901Z,93907.21
2019-02-11T18:39:58.381Z,93924.81
2019-02-11T18:42:26.120Z,93915.67
2019-02-11T18:44:53.752Z,93914.78
2019-02-11T18:47:21.324Z,93919.25
2019-02-11T18:49:48.888Z,93927.61
2019-02-11T18:52:16.883Z,93933.71
2019-02-11T18:54:44.301Z,93920.56
2019-02-11T18:57:11.792Z,93922.42
2019-02-11T18:59:39.271Z,93921.77
2019-02-11T19:02:06.796Z,93912.20
2019-02-11T19:04:34.260Z,93908.13
2019-02-11T19:07:01.690Z,93903.16
2019-02-11T19:09:29.246Z,93902.19
2019-02-11T19:11:56.608Z,93886.52
2019-02-11T19:14:24.252Z,93904.62
2019-02-11T19:16:51.956Z,93909.67
2019-02-11T19:19:19.390Z,93901.88
2019-02-11T19:21:47.106Z,93890.67
2019-02-11T19:24:14.926Z,93891.34
2019-02-11T19:26:42.987Z,93899.16
2019-02-11T19:29:10.540Z,93901.30
2019-02-11T19:31:38.287Z,93873.30
2019-02-11T19:34:05.759Z,93879.30
2019-02-11T19:36:33.201Z,93887.13
2019-02-11T19:39:00.923Z,93872.75
2019-02-11T19:41:28.583Z,93888.41
2019-02-11T19:43:56.756Z,93884.27
2019-02-11T19:46:24.557Z,93865.21
2019-02-11T19:48:52.362Z,93864.45
2019-02-11T19:51:20.085Z,93875.12
2019-02-11T19:53:47.899Z,93838.00
2019-02-11T19:56:16.353Z,93831.05
2019-02-11T19:58:44.391Z,93848.29
2019-02-11T20:01:12.028Z,93835.31
2019-02-11T20:03:42.371Z,93812.44
2019-02-11T20:06:11.539Z,93832.43
2019-02-11T20:08:39.422Z,93827.37
2019-02-11T20:11:07.029Z,93820.50
2019-02-11T20:13:34.461Z,93814.73
2019-02-11T20:16:02.003Z,93823.55
2019-02-11T20:18:29.882Z,93838.09
2019-02-11T20:20:57.295Z,93818.17
2019-02-11T20:23:24.813Z,93825.31
2019-02-11T20:25:52.788Z,93818.27
2019-02-11T20:28:20.207Z,93819.08
2019-02-11T20:30:47.765Z,93817.41
2019-02-11T20:33:15.207Z,93817.19
2019-02-11T20:35:43.821Z,93821.75
2019-02-11T20:38:11.862Z,93838.05
2019-02-11T20:40:39.293Z,93848.05
2019-02-11T20:43:06.765Z,93841.23
2019-02-11T20:45:34.204Z,93851.47
2019-02-11T20:48:01.597Z,93852.07
2019-02-11T20:50:29.037Z,93854.49
2019-02-11T20:52:56.562Z,93855.78
2019-02-11T20:55:24.019Z,93857.53
2019-02-11T20:57:52.934Z,93861.88
2019-02-11T21:00:21.837Z,93862.00
2019-02-11T21:02:49.196Z,93864.00
2019-02-11T21:05:16.845Z,93869.88
2019-02-11T21:07:44.325Z,93883.52
2019-02-11T21:10:12.652Z,93890.20
2019-02-11T21:12:40.107Z,93909.48
2019-02-11T21:15:09.230Z,93899.57
2019-02-11T21:17:36.681Z,93889.55
2019-02-11T21:20:07.994Z,93890.83
2019-02-11T21:22:35.492Z,93895.83
2019-02-11T21:25:03.136Z,93905.28
2019-02-11T21:27:30.581Z,93910.09
2019-02-11T21:29:57.995Z,93911.16
2019-02-11T21:32:25.531Z,93901.95
2019-02-11T21:34:53.052Z,93913.63
2019-02-11T21:37:20.477Z,93933.02
2019-02-11T21:39:47.953Z,93968.95
2019-02-11T21:42:15.289Z,93997.38
2019-02-11T21:44:42.833Z,94002.25
2019-02-11T21:47:10.253Z,94017.63
2019-02-11T21:49:37.639Z,94025.89
2019-02-11T21:52:05.081Z,94023.64
2019-02-11T21:54:32.615Z,94019.28
2019-02-11T21:56:59.973Z,94025.26
2019-02-11T21:59:27.389Z,94045.53
2019-02-11T22:01:54.813Z,94036.47
2019-02-11T22:04:22.238Z,94031.83
2019-02-11T22:06:49.662Z,94028.41
2019-02-11T22:09:17.087Z,94045.14
2019-02-11T22:11:44.551Z,94058.56
2019-02-11T22:14:12.442Z,94066.91
2019-02-11T22:16:39.877Z,94071.87
2019-02-11T22:19:07.310Z,94076.08
2019-02-11T22:21:34.750Z,94066.89
2019-02-11T22:24:02.184Z,94071.47
2019-02-11T22:26:29.563Z,94086.20
2019-02-11T22:28:57.004Z,94094.42
2019-02-11T22:31:24.829Z,94089.37
2019-02-11T22:33:52.505Z,94097.77
2019-02-11T22:36:19.911Z,94090.80
2019-02-11T22:38:47.266Z,94094.31
2019-02-11T22:41:14.695Z,94090.39
2019-02-11T22:43:43.426Z,94083.91
2019-02-11T22:46:10.768Z,94097.27
2019-02-11T22:48:38.241Z,94092.61
2019-02-11T22:51:05.728Z,94104.89
2019-02-11T22:53:33.159Z,94134.83
2019-02-11T22:56:00.623Z,94143.17
2019-02-11T22:58:28.035Z,94148.43
2019-02-11T23:01:05.663Z,94164.00
2019-02-11T23:03:34.878Z,94179.00
2019-02-11T23:06:02.756Z,94188.53
2019-02-11T23:08:30.183Z,94193.04
2019-02-11T23:10:57.569Z,94179.26
2019-02-11T23:13:25.031Z,94191.21
2019-02-11T23:15:52.593Z,94173.60
2019-02-11T23:18:19.960Z,94172.97
2019-02-11T23:20:52.067Z,94164.77
2019-02-11T23:23:16.779Z,94194.75
2019-02-11T23:25:44.181Z,94221.48
2019-02-11T23:28:11.557Z,94219.20
2019-02-11T23:30:39.251Z,94216.53
2019-02-11T23:33:06.805Z,94208.70
2019-02-11T23:35:34.411Z,94219.44
2019-02-11T23:38:01.885Z,94230.22
2019-02-11T23:40:29.409Z,94230.92
2019-02-11T23:42:56.791Z,94234.44
2019-02-11T23:45:24.244Z,94249.64
2019-02-11T23:47:51.691Z,94243.45
2019-02-11T23:50:19.061Z,94247.16
2019-02-11T23:52:46.505Z,94264.84
2019-02-11T23:55:13.950Z,94271.34
2019-02-11T23:57:41.423Z,94273.00
